Flight Track Log - Related Links

Times and Time Zones

All times are in EDT time to prevent confusion due to time zone crossing. See the CES2307 flight status page for this flight to view local times or setup timezone preferences in your user account.

Time Position Orientation Groundspeed Altitude Reporting Facility
EDT Latitude Longitude Course Direction KTS MPH feet Rate Location/Type
Thu 08:02:00 AM 33.2535 108.9326 173° South  Level Estimated
Thu 08:03:00 AM 33.1450 108.9488 173° South  Level Estimated
Thu 08:04:00 AM 33.0364 108.9650 173° South  Level Estimated
Thu 08:05:00 AM 32.9279 108.9811 173° South  Level Estimated
Thu 08:06:00 AM 32.8194 108.9972 173° South  Level Estimated
Thu 08:07:00 AM 32.7109 109.0133 173° South  Level Estimated
Thu 08:08:00 AM 32.6023 109.0293 173° South  Level Estimated
Thu 08:09:00 AM 32.4938 109.0453 173° South  Level Estimated
Thu 08:10:00 AM 32.3853 109.0612 173° South  Level Estimated
Thu 08:11:00 AM 32.2767 109.0771 173° South  Level Estimated
Thu 08:12:00 AM 32.1682 109.0930 173° South  Level Estimated
Thu 08:13:00 AM 32.0596 109.1088 173° South  Level Estimated
Thu 08:14:00 AM 31.9511 109.1246 173° South  Level Estimated
Thu 08:15:00 AM 31.8425 109.1403 173° South  Level Estimated
Thu 08:16:00 AM 31.7340 109.1560 173° South  Level Estimated
Thu 08:17:00 AM 31.6254 109.1717 173° South  Level Estimated
Thu 08:18:00 AM 31.5169 109.1873 173° South  Level Estimated
Thu 08:19:00 AM 31.4083 109.2029 173° South  Level Estimated
Thu 08:20:00 AM 31.2998 109.2185 173° South  Level Estimated
Thu 08:21:00 AM 31.1912 109.2340 173° South  Level Estimated
Thu 08:22:00 AM 31.0826 109.2495 173° South  Level Estimated
Thu 08:23:00 AM 30.9741 109.2650 173° South  Level Estimated
Thu 08:24:00 AM 30.8655 109.2804 173° South  Level Estimated
Thu 08:25:00 AM 30.7570 109.2958 173° South  Level Estimated
Thu 08:26:00 AM 30.6484 109.3111 173° South  Level Estimated
Thu 08:27:00 AM 30.5398 109.3264 173° South  Level Estimated
Thu 08:28:00 AM 30.4312 109.3417 173° South  Level Estimated
Thu 08:29:00 AM 30.3227 109.3570 173° South  Level Estimated
Thu 08:30:00 AM 30.2141 109.3722 173° South  Level Estimated
Thu 08:31:00 AM 30.1055 109.3874 173° South  Level Estimated
Thu 08:32:00 AM 29.9969 109.4025 173° South  Level Estimated
Thu 08:33:00 AM 29.8883 109.4176 173° South  Level Estimated
Thu 08:34:00 AM 29.7798 109.4327 173° South  Level Estimated
Thu 08:35:00 AM 29.6712 109.4478 173° South  Level Estimated
Thu 08:36:00 AM 29.5626 109.4628 173° South  Level Estimated
Thu 08:37:00 AM 29.4540 109.4778 173° South  Level Estimated
Thu 08:38:00 AM 29.3454 109.4927 173° South  Level Estimated
Thu 08:39:00 AM 29.2368 109.5077 173° South  Level Estimated
Thu 08:40:00 AM 29.1282 109.5226 173° South  Level Estimated
Thu 08:41:00 AM 29.0196 109.5374 173° South  Level Estimated
Thu 08:42:00 AM 28.9111 109.5522 173° South  Level Estimated
Thu 08:43:00 AM 28.8025 109.5670 173° South  Level Estimated
Thu 08:44:00 AM 28.6938 109.5818 173° South  Level Estimated
Thu 08:45:00 AM 28.5853 109.5965 173° South  Level Estimated
Thu 08:46:00 AM 28.4767 109.6113 173° South  Level Estimated
Thu 08:47:00 AM 28.3680 109.6259 173° South  Level Estimated
Thu 08:48:00 AM 28.2594 109.6406 173° South  Level Estimated
Thu 08:49:00 AM 28.1508 109.6552 173° South  Level Estimated
Thu 08:50:00 AM 28.0422 109.6698 173° South  Level Estimated
Thu 08:51:00 AM 27.9336 109.6843 173° South  Level Estimated
Thu 08:52:00 AM 27.8250 109.6989 173° South  Level Estimated
Thu 08:53:00 AM 27.7164 109.7134 173° South  Level Estimated
Thu 08:54:00 AM 27.6078 109.7279 173° South  Level Estimated
Thu 08:55:00 AM 27.4992 109.7423 173° South  Level Estimated
Thu 08:56:00 AM 27.3905 109.7567 173° South  Level Estimated
Thu 08:57:00 AM 27.2819 109.7711 173° South  Level Estimated
Thu 08:58:00 AM 27.1733 109.7854 173° South  Level Estimated
Thu 08:59:00 AM 27.0647 109.7998 173° South  Level Estimated
Thu 09:00:00 AM 26.9561 109.8141 173° South  Level Estimated
Thu 09:01:00 AM 26.8474 109.8283 173° South  Level Estimated
Thu 09:02:00 AM 26.7388 109.8426 173° South  Level Estimated
Thu 09:03:00 AM 26.6302 109.8568 173° South  Level Estimated
Thu 09:04:00 AM 26.5215 109.8710 173° South  Level Estimated
Thu 09:05:00 AM 26.4129 109.8851 173° South  Level Estimated
Thu 09:06:00 AM 26.3043 109.8993 173° South  Level Estimated
Thu 09:07:00 AM 26.1957 109.9134 173° South  Level Estimated
Thu 09:08:00 AM 26.0870 109.9275 173° South  Level Estimated
Thu 09:09:00 AM 25.9784 109.9415 173° South  Level Estimated
Thu 09:10:00 AM 25.8697 109.9556 173° South  Level Estimated
Thu 09:11:00 AM 25.7611 109.9696 173° South  Level Estimated
Thu 09:12:00 AM 25.6525 109.9836 173° South  Level Estimated
Thu 09:13:00 AM 25.5438 109.9975 173° South  Level Estimated
Thu 09:14:00 AM 25.4352 110.0114 173° South  Level Estimated
Thu 09:15:00 AM 25.3265 110.0253 173° South  Level Estimated
Thu 09:16:00 AM 25.2181 110.0392 173° South  Level Estimated
Thu 09:17:00 AM 25.2181 110.0392 214° Southwest  Level Estimated
Thu 09:18:00 AM 25.2181 110.0392 214° Southwest  Level Estimated
Thu 09:19:00 AM 25.2181 110.0392 214° Southwest  Level Estimated
Thu 09:20:00 AM 25.2181 110.0392 214° Southwest  Level Estimated
Thu 09:21:00 AM 25.2181 110.0392 214° Southwest  Level Estimated
Thu 09:22:00 AM 25.2181 110.0392 214° Southwest  Level Estimated
Thu 09:23:00 AM 25.2181 110.0392 214° Southwest  Level Estimated

Login

Don't have an account? Register now (free) for customized features, flight alerts, and more!